Time;durP1;ratioP1;P1;durP2;ratioP2;P2;SDS_P1;SDS_P2;PMS_P1;PMS_P2;Temp;Humidity;BMP_temperature;BMP_pressure;BME280_temperature;BME280_humidity;BME280_pressure;Samples;Min_cycle;Max_cycle;Signal;HPM_P1;HPM_P2
2022/01/08 00:01:21;;;;;;;6.53;3.20;;;2.90;99.90;;;;;;4995434;28;20180;-76
2022/01/08 00:03:48;;;;;;;4.60;3.40;;;2.90;99.90;;;;;;4995091;28;20212;-77
2022/01/08 00:06:14;;;;;;;8.98;2.45;;;2.90;99.90;;;;;;4995371;28;20203;-76
2022/01/08 00:08:40;;;;;;;4.00;2.40;;;2.90;99.90;;;;;;4994774;28;20199;-76
2022/01/08 00:11:07;;;;;;;3.07;2.50;;;2.90;99.90;;;;;;4995411;28;20210;-76
2022/01/08 00:13:33;;;;;;;3.58;3.25;;;2.90;99.90;;;;;;4996249;28;20660;-77
2022/01/08 00:15:59;;;;;;;6.13;2.67;;;2.90;99.90;;;;;;5009919;28;20226;-76
2022/01/08 00:18:25;;;;;;;4.70;3.40;;;2.90;99.90;;;;;;4994509;28;20700;-76
2022/01/08 00:20:50;;;;;;;5.47;3.00;;;3.00;99.90;;;;;;4994828;28;20172;-76
2022/01/08 00:23:16;;;;;;;8.90;3.40;;;3.00;99.90;;;;;;4995121;28;20649;-76
2022/01/08 00:25:42;;;;;;;3.63;3.00;;;2.90;99.90;;;;;;4994782;28;20176;-76
2022/01/08 00:28:07;;;;;;;3.50;3.20;;;3.00;99.90;;;;;;4992586;28;20443;-77
2022/01/08 00:30:33;;;;;;;4.73;2.80;;;2.90;99.90;;;;;;4994636;28;20188;-77
2022/01/08 00:32:59;;;;;;;7.20;3.00;;;2.90;99.90;;;;;;4994635;28;20307;-76
2022/01/08 00:35:26;;;;;;;5.37;3.60;;;3.00;99.90;;;;;;4994688;28;20235;-77
2022/01/08 00:37:53;;;;;;;5.47;2.40;;;2.90;99.90;;;;;;4994000;28;20727;-77
2022/01/08 00:40:19;;;;;;;8.30;2.70;;;2.90;99.90;;;;;;4994505;28;20182;-76
2022/01/08 00:42:45;;;;;;;8.10;2.50;;;3.00;99.90;;;;;;4994542;28;20211;-76
2022/01/08 00:45:10;;;;;;;6.47;2.50;;;3.00;99.90;;;;;;4994034;28;20520;-78
2022/01/08 00:47:36;;;;;;;8.10;2.30;;;3.00;99.90;;;;;;5011563;28;20207;-78
2022/01/08 00:50:04;;;;;;;3.20;2.40;;;3.00;99.90;;;;;;5013585;28;20628;-76
2022/01/08 00:52:30;;;;;;;4.20;2.50;;;3.00;99.90;;;;;;5013936;28;20617;-76
2022/01/08 00:54:55;;;;;;;11.07;3.10;;;3.00;99.90;;;;;;5013849;28;20243;-76
2022/01/08 00:57:21;;;;;;;6.23;2.30;;;3.00;99.90;;;;;;5013840;28;20172;-76
2022/01/08 00:59:46;;;;;;;2.57;1.90;;;2.90;99.90;;;;;;5013564;28;20202;-76
2022/01/08 01:02:12;;;;;;;9.20;2.20;;;2.90;99.90;;;;;;5012609;28;20400;-76
2022/01/08 01:04:38;;;;;;;8.07;2.57;;;3.00;99.90;;;;;;5013652;28;20204;-76
2022/01/08 01:07:03;;;;;;;5.10;2.13;;;3.00;99.90;;;;;;5013716;28;20183;-76
2022/01/08 01:09:29;;;;;;;5.00;1.27;;;3.00;99.90;;;;;;5013321;28;20258;-76
2022/01/08 01:11:57;;;;;;;6.13;2.30;;;3.00;99.90;;;;;;5013604;28;20194;-76
2022/01/08 01:14:52;;;;;;;2.83;1.73;;;3.00;99.90;;;;;;5013543;28;20180;-76
2022/01/08 01:17:18;;;;;;;3.90;2.20;;;3.10;99.90;;;;;;5003973;28;20242;-76
2022/01/08 01:19:43;;;;;;;9.43;2.40;;;3.10;99.90;;;;;;5013294;28;20236;-76
2022/01/08 01:22:12;;;;;;;5.47;1.90;;;3.10;99.90;;;;;;5000234;28;20327;-76
2022/01/08 01:24:39;;;;;;;5.90;2.10;;;3.20;99.90;;;;;;5005759;28;20190;-76
2022/01/08 01:27:33;;;;;;;9.27;2.45;;;3.10;99.90;;;;;;5013151;28;20184;-76
2022/01/08 01:48:43;;;;;;;8.43;2.40;;;3.10;99.90;;;;;;4993447;28;20222;-76
2022/01/08 01:51:17;;;;;;;4.90;1.80;;;3.10;99.90;;;;;;4993695;28;20274;-76
2022/01/08 01:53:43;;;;;;;4.82;2.15;;;3.10;99.90;;;;;;4993589;28;20183;-76
2022/01/08 01:56:08;;;;;;;7.13;2.00;;;3.00;99.90;;;;;;4994002;28;20598;-76
2022/01/08 01:58:34;;;;;;;6.70;2.20;;;3.00;99.90;;;;;;4995724;28;20206;-76
2022/01/08 02:01:01;;;;;;;8.20;2.50;;;2.90;99.90;;;;;;4996043;28;20189;-76
2022/01/08 02:03:26;;;;;;;12.10;2.25;;;2.80;99.90;;;;;;4997574;28;20549;-76
2022/01/08 02:05:52;;;;;;;7.47;2.17;;;2.70;99.90;;;;;;4997472;28;20186;-76
2022/01/08 02:08:18;;;;;;;6.93;2.10;;;2.70;99.90;;;;;;4997055;28;20211;-76
2022/01/08 02:10:43;;;;;;;5.90;2.00;;;2.60;99.90;;;;;;4997041;28;20182;-76
2022/01/08 02:13:09;;;;;;;3.73;2.37;;;2.40;99.90;;;;;;4997179;28;20187;-76
2022/01/08 02:15:36;;;;;;;9.10;2.73;;;2.40;99.90;;;;;;4997153;28;20342;-76
2022/01/08 02:18:31;;;;;;;3.50;2.17;;;2.40;99.90;;;;;;4996798;28;20195;-76
2022/01/08 02:21:01;;;;;;;4.47;2.55;;;2.30;99.90;;;;;;4980566;28;20192;-76
2022/01/08 02:23:27;;;;;;;10.52;2.22;;;2.20;99.90;;;;;;4996985;28;20216;-76
2022/01/08 02:26:05;;;;;;;6.60;2.43;;;2.10;99.90;;;;;;4998057;28;20231;-76
2022/01/08 02:28:30;;;;;;;11.82;2.28;;;2.00;99.90;;;;;;4996439;28;20612;-77
2022/01/08 02:30:56;;;;;;;6.10;2.20;;;1.80;99.90;;;;;;4996599;28;20321;-76
2022/01/08 02:33:26;;;;;;;5.63;2.93;;;1.70;99.90;;;;;;4996729;28;20183;-76
2022/01/08 02:35:52;;;;;;;7.05;2.42;;;1.70;99.90;;;;;;4996829;28;20205;-77
2022/01/08 02:38:17;;;;;;;6.05;2.50;;;1.70;99.90;;;;;;4996354;28;20212;-76
2022/01/08 02:40:53;;;;;;;4.67;2.30;;;1.60;99.90;;;;;;4996754;28;20188;-76
2022/01/08 02:43:18;;;;;;;3.90;2.28;;;1.50;99.90;;;;;;4997117;28;20943;-76
2022/01/08 02:45:44;;;;;;;7.03;2.53;;;1.50;99.90;;;;;;4996672;28;20189;-76
2022/01/08 02:48:10;;;;;;;9.80;2.93;;;1.40;99.90;;;;;;4994983;28;20223;-76
2022/01/08 02:50:35;;;;;;;7.83;2.57;;;1.30;99.90;;;;;;4996590;28;20215;-78
2022/01/08 02:53:01;;;;;;;5.27;2.60;;;1.10;99.90;;;;;;4996643;28;20186;-77
2022/01/08 02:55:27;;;;;;;3.83;2.20;;;1.10;99.90;;;;;;4996681;28;20254;-76
2022/01/08 02:57:52;;;;;;;4.07;2.77;;;1.00;99.90;;;;;;4997146;28;20684;-76
2022/01/08 03:00:19;;;;;;;6.13;2.20;;;1.00;99.90;;;;;;4996438;28;20199;-76
2022/01/08 03:02:50;;;;;;;6.00;3.45;;;0.90;99.90;;;;;;4995991;28;20288;-77
2022/01/08 03:05:16;;;;;;;5.50;2.95;;;0.80;99.90;;;;;;4995282;28;20287;-77
2022/01/08 03:07:44;;;;;;;11.32;2.92;;;0.80;99.90;;;;;;4995958;28;20188;-77
2022/01/08 03:10:11;;;;;;;6.40;2.42;;;0.80;99.90;;;;;;5010712;28;20712;-77
2022/01/08 03:12:41;;;;;;;7.80;2.28;;;0.70;99.90;;;;;;4996165;28;20220;-76
2022/01/08 03:15:09;;;;;;;8.48;2.40;;;0.70;99.90;;;;;;4996010;28;20199;-77
2022/01/08 03:17:34;;;;;;;3.63;1.70;;;0.60;99.90;;;;;;4995885;28;20509;-77
2022/01/08 03:20:05;;;;;;;7.87;2.30;;;0.60;99.90;;;;;;4996031;28;20214;-76
2022/01/08 03:22:31;;;;;;;3.80;2.22;;;0.50;99.90;;;;;;5011231;28;20702;-77
2022/01/08 03:24:57;;;;;;;7.68;3.03;;;0.60;99.90;;;;;;4996580;28;20180;-78
2022/01/08 03:27:23;;;;;;;7.97;3.53;;;0.60;99.90;;;;;;4995622;28;20192;-77
2022/01/08 03:29:49;;;;;;;4.93;2.43;;;0.60;99.90;;;;;;4994903;28;20443;-77
2022/01/08 03:32:14;;;;;;;10.93;2.93;;;0.60;99.90;;;;;;4995665;28;20184;-76
2022/01/08 03:34:40;;;;;;;10.60;3.37;;;0.60;99.90;;;;;;4995775;28;20205;-76
2022/01/08 03:37:05;;;;;;;9.60;3.73;;;0.60;99.90;;;;;;4995626;28;20652;-76
2022/01/08 03:39:31;;;;;;;8.80;5.60;;;0.80;99.90;;;;;;4995138;28;20201;-77
2022/01/08 03:41:57;;;;;;;14.67;6.17;;;1.20;99.90;;;;;;5010831;28;20178;-76
2022/01/08 03:44:23;;;;;;;14.27;7.00;;;1.20;99.90;;;;;;4995538;28;20181;-76
2022/01/08 03:46:48;;;;;;;19.25;9.18;;;1.30;99.90;;;;;;4995552;28;20201;-76
2022/01/08 03:49:25;;;;;;;17.77;11.13;;;1.40;99.90;;;;;;4995198;28;20201;-77
2022/01/08 03:51:52;;;;;;;19.40;10.75;;;1.40;99.90;;;;;;4995691;28;20561;-76
2022/01/08 03:54:18;;;;;;;21.60;10.52;;;1.30;99.90;;;;;;4996127;28;20548;-76
2022/01/08 03:56:44;;;;;;;21.05;12.98;;;1.40;99.90;;;;;;5015048;28;20212;-76
2022/01/08 03:59:10;;;;;;;17.77;10.77;;;1.30;99.90;;;;;;5014687;28;20200;-77
2022/01/08 04:01:36;;;;;;;28.77;14.50;;;1.30;99.90;;;;;;5014683;28;20212;-77
2022/01/08 04:04:01;;;;;;;33.73;14.60;;;1.30;99.90;;;;;;5014234;28;20411;-76
2022/01/08 04:06:27;;;;;;;24.27;14.63;;;1.40;99.90;;;;;;5014562;28;20212;-76
2022/01/08 04:08:57;;;;;;;26.70;13.67;;;1.30;99.90;;;;;;5014429;28;20290;-76
2022/01/08 04:11:24;;;;;;;29.08;16.52;;;1.30;99.90;;;;;;5013451;28;20690;-76
2022/01/08 04:13:50;;;;;;;29.05;17.85;;;1.20;99.90;;;;;;5014576;28;20179;-77
2022/01/08 04:16:20;;;;;;;30.33;18.02;;;1.30;99.90;;;;;;5014490;28;20223;-76
2022/01/08 04:18:46;;;;;;;25.95;18.20;;;1.30;99.90;;;;;;5014097;28;20257;-76
2022/01/08 04:23:37;;;;;;;34.20;17.97;;;1.40;99.90;;;;;;5014241;28;20232;-77
2022/01/08 04:26:03;;;;;;;28.70;16.80;;;1.40;99.90;;;;;;5014313;28;20767;-76
2022/01/08 04:28:29;;;;;;;27.35;17.85;;;1.40;99.90;;;;;;5011925;28;20203;-76
2022/01/08 04:30:54;;;;;;;27.40;18.17;;;1.40;99.90;;;;;;5014333;28;20198;-76
2022/01/08 04:33:20;;;;;;;33.43;17.30;;;1.30;99.90;;;;;;5013832;28;20716;-76
2022/01/08 04:35:46;;;;;;;27.40;15.90;;;1.40;99.90;;;;;;5013985;28;20207;-77
2022/01/08 04:38:12;;;;;;;25.07;17.17;;;1.30;99.90;;;;;;5013773;28;20286;-76
2022/01/08 04:40:38;;;;;;;24.88;15.00;;;1.50;99.90;;;;;;5014215;28;20171;-76
2022/01/08 04:43:04;;;;;;;32.58;15.52;;;1.40;99.90;;;;;;5014411;28;20550;-76
2022/01/08 04:45:30;;;;;;;25.43;16.57;;;1.40;99.90;;;;;;5014194;28;20187;-77
2022/01/08 04:47:58;;;;;;;28.85;15.65;;;1.40;99.90;;;;;;5013517;28;20175;-77
2022/01/08 04:50:25;;;;;;;27.58;16.20;;;1.40;99.90;;;;;;5013970;28;20179;-76
2022/01/08 04:52:51;;;;;;;22.20;15.02;;;1.40;99.90;;;;;;5007952;28;20220;-77
2022/01/08 04:55:17;;;;;;;25.38;16.30;;;1.40;99.90;;;;;;4994186;28;20224;-76
2022/01/08 04:57:43;;;;;;;30.90;16.13;;;1.30;99.90;;;;;;4993866;28;20174;-77
2022/01/08 05:00:09;;;;;;;24.80;16.10;;;1.40;99.90;;;;;;4994250;28;20521;-76
2022/01/08 05:02:35;;;;;;;28.85;16.33;;;1.40;99.90;;;;;;4994258;28;20177;-77
2022/01/08 05:05:01;;;;;;;20.93;14.20;;;1.30;99.90;;;;;;4994223;28;20195;-77
2022/01/08 05:07:27;;;;;;;22.38;14.75;;;1.10;99.90;;;;;;4993832;28;20184;-77
2022/01/08 05:09:52;;;;;;;28.17;14.83;;;1.10;99.90;;;;;;4994040;28;20615;-76
2022/01/08 05:12:18;;;;;;;24.93;14.13;;;1.20;99.90;;;;;;4994206;28;20181;-76
2022/01/08 05:14:44;;;;;;;28.77;15.83;;;1.10;99.90;;;;;;4992842;28;20312;-76
2022/01/08 05:17:10;;;;;;;25.23;14.25;;;1.00;99.90;;;;;;5009059;28;20657;-76
2022/01/08 05:19:50;;;;;;;21.90;13.77;;;1.00;99.90;;;;;;4993424;28;20203;-76
2022/01/08 05:22:29;;;;;;;26.50;13.25;;;0.90;99.90;;;;;;4993826;28;20303;-76
2022/01/08 05:24:56;;;;;;;25.50;13.70;;;0.70;99.90;;;;;;5005583;28;20554;-76
2022/01/08 05:27:22;;;;;;;22.42;15.02;;;0.80;99.90;;;;;;5013286;28;20183;-77
2022/01/08 05:29:49;;;;;;;21.05;12.98;;;0.80;99.90;;;;;;5012979;28;20599;-77
2022/01/08 05:32:16;;;;;;;25.92;13.80;;;0.80;99.90;;;;;;5012506;28;20216;-77
2022/01/08 05:34:50;;;;;;;21.65;14.23;;;0.60;99.90;;;;;;5013305;28;20207;-76
2022/01/08 05:37:17;;;;;;;23.70;13.50;;;0.60;99.90;;;;;;5013205;28;20233;-76
2022/01/08 05:39:43;;;;;;;20.17;13.35;;;0.50;99.90;;;;;;5013039;28;20230;-76
2022/01/08 05:42:09;;;;;;;20.13;11.77;;;0.40;99.90;;;;;;5013144;28;20321;-76
2022/01/08 05:44:34;;;;;;;24.00;14.40;;;0.30;99.90;;;;;;5013298;28;20505;-77
2022/01/08 05:47:01;;;;;;;24.97;14.80;;;0.20;99.90;;;;;;5012101;28;20187;-76
2022/01/08 05:49:27;;;;;;;26.48;14.18;;;0.20;99.90;;;;;;5012914;28;20560;-76
2022/01/08 05:51:53;;;;;;;21.03;12.90;;;0.10;99.90;;;;;;5013350;28;20179;-76
2022/01/08 05:54:18;;;;;;;24.23;13.10;;;0.10;99.90;;;;;;5011781;28;20507;-77
2022/01/08 05:56:44;;;;;;;23.00;14.63;;;0.00;99.90;;;;;;5008134;28;20239;-76
2022/01/08 05:59:09;;;;;;;22.77;13.30;;;0.00;99.90;;;;;;4992957;28;20259;-77
2022/01/08 06:01:35;;;;;;;23.33;14.30;;;0.00;99.90;;;;;;4993616;28;20238;-76
2022/01/08 06:04:02;;;;;;;28.07;13.83;;;-0.10;99.90;;;;;;4993368;28;20259;-76
2022/01/08 06:06:28;;;;;;;23.98;14.57;;;-0.10;99.90;;;;;;4993486;28;20411;-76
2022/01/08 06:08:53;;;;;;;27.15;12.77;;;-0.10;99.90;;;;;;4993081;28;20203;-76
2022/01/08 06:11:19;;;;;;;18.53;13.40;;;0.20;99.90;;;;;;4993622;28;20214;-76
2022/01/08 06:13:45;;;;;;;23.13;13.57;;;0.30;99.90;;;;;;4993486;28;20271;-76
2022/01/08 06:16:10;;;;;;;23.83;12.80;;;0.40;99.90;;;;;;4993302;28;20204;-76
2022/01/08 06:18:37;;;;;;;23.17;13.40;;;0.30;99.90;;;;;;4992932;28;20235;-76
2022/01/08 06:21:04;;;;;;;21.60;12.85;;;0.20;99.90;;;;;;4993380;28;20188;-77
2022/01/08 06:23:29;;;;;;;21.85;13.00;;;0.40;99.90;;;;;;4994250;28;20169;-76
2022/01/08 06:25:55;;;;;;;21.30;15.43;;;0.60;99.90;;;;;;5012523;28;20682;-76
2022/01/08 06:28:21;;;;;;;28.83;14.20;;;0.70;99.90;;;;;;5019139;28;20199;-77
2022/01/08 06:30:49;;;;;;;26.17;15.10;;;0.70;99.90;;;;;;5012724;28;20187;-77
2022/01/08 06:33:15;;;;;;;31.95;15.00;;;0.90;99.90;;;;;;5011623;28;20234;-76
2022/01/08 06:35:41;;;;;;;33.70;14.45;;;1.10;99.90;;;;;;5011645;28;20210;-76
2022/01/08 06:38:07;;;;;;;32.13;15.25;;;1.10;99.90;;;;;;5012217;28;20688;-76
2022/01/08 06:40:33;;;;;;;21.00;13.27;;;1.10;99.90;;;;;;5012536;28;20179;-77
2022/01/08 06:42:58;;;;;;;27.17;14.77;;;1.10;99.90;;;;;;5011526;28;20616;-76
2022/01/08 06:45:24;;;;;;;27.73;13.43;;;1.20;99.90;;;;;;5015159;28;20527;-76
2022/01/08 06:47:49;;;;;;;29.90;14.40;;;1.30;99.90;;;;;;5015845;28;20200;-76
2022/01/08 06:50:15;;;;;;;29.27;15.07;;;1.30;99.90;;;;;;5015119;28;20184;-76
2022/01/08 06:52:41;;;;;;;26.17;14.63;;;1.30;99.90;;;;;;5014802;28;20187;-77
2022/01/08 06:55:07;;;;;;;24.77;15.03;;;1.30;99.90;;;;;;5014849;28;20263;-76
2022/01/08 06:57:33;;;;;;;33.28;16.80;;;1.30;99.90;;;;;;5015688;28;20179;-76
2022/01/08 07:00:01;;;;;;;23.90;14.35;;;1.30;99.90;;;;;;5014665;28;20294;-76
2022/01/08 07:02:27;;;;;;;33.97;15.23;;;1.40;99.90;;;;;;5015924;28;20195;-77
2022/01/08 07:04:52;;;;;;;24.23;14.93;;;1.30;99.90;;;;;;5014733;28;20664;-76
2022/01/08 07:07:18;;;;;;;29.43;14.70;;;1.20;99.90;;;;;;5016021;28;20179;-76
2022/01/08 07:09:44;;;;;;;26.40;14.90;;;1.40;99.90;;;;;;5015559;28;20204;-76
2022/01/08 07:12:09;;;;;;;28.93;15.07;;;1.40;99.90;;;;;;5015809;28;20434;-76
2022/01/08 07:14:35;;;;;;;25.50;15.43;;;1.40;99.90;;;;;;5015701;28;20190;-77
2022/01/08 07:17:01;;;;;;;26.63;14.87;;;1.30;99.90;;;;;;5015665;28;20182;-77
2022/01/08 07:19:26;;;;;;;25.80;15.30;;;1.30;99.90;;;;;;5015416;28;20215;-76
2022/01/08 07:21:52;;;;;;;28.90;17.10;;;1.30;99.90;;;;;;5015580;28;20203;-76
2022/01/08 07:24:18;;;;;;;28.87;15.57;;;1.20;99.90;;;;;;5015521;28;20180;-76
2022/01/08 07:26:43;;;;;;;24.10;15.20;;;1.30;99.90;;;;;;5013733;28;20263;-77
2022/01/08 07:29:09;;;;;;;29.50;13.70;;;1.20;99.90;;;;;;5014617;28;20267;-77
2022/01/08 07:31:35;;;;;;;22.27;13.40;;;1.20;99.90;;;;;;5015097;28;20641;-77
2022/01/08 07:34:00;;;;;;;25.40;14.73;;;1.20;99.90;;;;;;5015216;28;20426;-76
2022/01/08 07:36:26;;;;;;;22.90;13.10;;;1.30;99.90;;;;;;5013943;28;20274;-76
2022/01/08 07:38:52;;;;;;;28.20;14.90;;;1.20;99.90;;;;;;5014929;28;20716;-76
2022/01/08 07:41:17;;;;;;;21.10;12.90;;;1.20;99.90;;;;;;5015356;28;20597;-76
2022/01/08 07:43:43;;;;;;;28.20;14.90;;;1.20;99.90;;;;;;5015539;28;20582;-76
2022/01/08 07:46:08;;;;;;;20.37;13.17;;;1.20;99.90;;;;;;5014904;28;20201;-76
2022/01/08 07:48:34;;;;;;;24.70;13.37;;;1.20;99.90;;;;;;5014629;28;20234;-76
2022/01/08 07:51:00;;;;;;;24.00;13.17;;;1.20;99.90;;;;;;5015023;28;20239;-77
2022/01/08 07:53:26;;;;;;;22.40;12.50;;;1.30;99.90;;;;;;5015097;28;20193;-76
2022/01/08 07:55:52;;;;;;;20.33;13.38;;;1.30;99.90;;;;;;5013599;28;20471;-76
2022/01/08 07:58:20;;;;;;;24.73;14.17;;;1.30;99.90;;;;;;5014721;28;20198;-76
2022/01/08 08:00:47;;;;;;;20.02;12.40;;;1.40;99.90;;;;;;5013069;28;20196;-76
2022/01/08 08:03:13;;;;;;;22.25;13.40;;;1.40;99.90;;;;;;5014810;28;20245;-77
2022/01/08 08:05:39;;;;;;;22.45;14.75;;;1.50;99.90;;;;;;5014855;28;20269;-76
2022/01/08 08:08:05;;;;;;;29.10;13.57;;;1.50;99.90;;;;;;5014305;28;20203;-76
2022/01/08 08:10:31;;;;;;;23.53;12.43;;;1.50;99.90;;;;;;5014783;28;20210;-77
2022/01/08 08:12:56;;;;;;;24.50;14.55;;;1.50;99.90;;;;;;5014730;28;20212;-76
2022/01/08 08:15:23;;;;;;;21.23;12.97;;;1.60;99.90;;;;;;5014393;28;20240;-76
2022/01/08 08:17:48;;;;;;;22.73;12.55;;;1.60;99.90;;;;;;5014267;28;20416;-76
2022/01/08 08:20:14;;;;;;;20.70;13.40;;;1.60;99.90;;;;;;5014447;28;20204;-76
2022/01/08 08:22:40;;;;;;;20.23;12.00;;;1.60;99.90;;;;;;5014429;28;20209;-77
2022/01/08 08:25:08;;;;;;;21.57;11.50;;;1.70;99.90;;;;;;5014356;28;20651;-76
2022/01/08 08:27:34;;;;;;;22.77;13.13;;;1.80;99.90;;;;;;5013882;28;20436;-77
2022/01/08 08:29:59;;;;;;;23.97;12.83;;;1.90;99.90;;;;;;5014202;28;20202;-76
2022/01/08 08:32:25;;;;;;;31.90;13.57;;;1.90;99.90;;;;;;5014131;28;20193;-77
2022/01/08 08:34:51;;;;;;;21.73;13.40;;;1.90;99.90;;;;;;5012948;28;20205;-76
2022/01/08 08:37:17;;;;;;;27.30;13.67;;;2.00;99.90;;;;;;5013758;28;20847;-77
2022/01/08 08:39:43;;;;;;;27.17;12.95;;;2.00;99.90;;;;;;5013429;28;20668;-76
2022/01/08 08:42:08;;;;;;;27.60;12.53;;;2.00;99.90;;;;;;5012845;28;20193;-77
2022/01/08 08:44:34;;;;;;;28.97;13.57;;;2.10;99.90;;;;;;5014272;28;20176;-76
2022/01/08 08:47:00;;;;;;;19.50;12.45;;;2.10;99.90;;;;;;5014127;28;20212;-76
2022/01/08 08:49:26;;;;;;;22.17;12.20;;;2.10;99.90;;;;;;5013784;28;20225;-78
2022/01/08 08:51:53;;;;;;;19.60;12.43;;;2.10;99.90;;;;;;5014078;28;20204;-77
2022/01/08 08:54:19;;;;;;;25.35;12.50;;;2.10;99.90;;;;;;5014056;28;20200;-76
2022/01/08 08:56:45;;;;;;;18.70;11.30;;;2.10;99.90;;;;;;5012740;28;20177;-77
2022/01/08 08:59:10;;;;;;;19.77;11.47;;;2.20;99.90;;;;;;5013576;28;20195;-76
2022/01/08 09:01:36;;;;;;;23.40;11.20;;;2.30;99.90;;;;;;5011149;28;20310;-77
2022/01/08 09:04:03;;;;;;;18.35;10.55;;;2.30;99.90;;;;;;4994001;28;20189;-76
2022/01/08 09:06:30;;;;;;;24.60;12.48;;;2.40;99.90;;;;;;4993610;28;20195;-77
2022/01/08 09:08:56;;;;;;;19.75;10.98;;;2.40;99.90;;;;;;4993085;28;20196;-77
2022/01/08 09:11:22;;;;;;;16.87;10.83;;;2.40;99.90;;;;;;4992791;28;20248;-76
2022/01/08 09:13:48;;;;;;;19.55;10.85;;;2.50;99.90;;;;;;4993717;28;20412;-77
2022/01/08 09:16:13;;;;;;;22.90;12.30;;;2.50;99.90;;;;;;4993866;28;20315;-76
2022/01/08 09:18:41;;;;;;;20.47;11.03;;;2.60;99.90;;;;;;4992252;28;20462;-76
2022/01/08 09:21:07;;;;;;;20.67;9.55;;;2.70;99.90;;;;;;4993982;28;20202;-76
2022/01/08 09:23:33;;;;;;;18.95;11.15;;;2.70;99.90;;;;;;4993821;28;20223;-77
2022/01/08 09:26:00;;;;;;;22.95;10.70;;;2.70;99.90;;;;;;4992472;28;20608;-76
2022/01/08 09:28:26;;;;;;;18.95;10.10;;;2.70;99.90;;;;;;4993621;28;20211;-77
2022/01/08 09:30:52;;;;;;;15.38;8.55;;;2.80;99.90;;;;;;4993671;28;20259;-76
2022/01/08 09:33:18;;;;;;;13.40;9.00;;;2.90;99.90;;;;;;4993350;28;20204;-76
2022/01/08 09:35:43;;;;;;;19.67;8.87;;;2.90;99.90;;;;;;5011224;28;20634;-77
2022/01/08 09:38:09;;;;;;;12.93;8.50;;;3.00;99.90;;;;;;5012712;28;20545;-76
2022/01/08 09:40:35;;;;;;;18.43;8.90;;;3.00;99.90;;;;;;5013326;28;20641;-77
2022/01/08 09:43:03;;;;;;;13.67;8.70;;;3.00;99.90;;;;;;5013168;28;20632;-76
2022/01/08 09:45:28;;;;;;;13.80;7.80;;;3.00;99.90;;;;;;5013346;28;20415;-77
2022/01/08 09:47:54;;;;;;;17.93;9.60;;;3.00;99.90;;;;;;5012604;28;20248;-76
2022/01/08 09:50:20;;;;;;;18.70;7.73;;;3.10;99.90;;;;;;5013208;28;20541;-76
2022/01/08 09:52:45;;;;;;;15.23;7.87;;;3.10;99.90;;;;;;5013130;28;20183;-76
2022/01/08 09:55:11;;;;;;;23.70;8.80;;;3.10;99.90;;;;;;5012028;28;20215;-76
2022/01/08 09:57:37;;;;;;;11.40;8.50;;;3.20;99.90;;;;;;5012869;28;20255;-76
2022/01/08 10:00:23;;;;;;;17.83;8.57;;;3.20;99.90;;;;;;5013238;28;20466;-77
2022/01/08 10:02:50;;;;;;;13.32;7.65;;;3.20;99.90;;;;;;5013345;28;20282;-76
2022/01/08 10:05:16;;;;;;;12.20;7.95;;;3.20;99.90;;;;;;5012020;28;20270;-76
2022/01/08 10:07:43;;;;;;;11.17;7.30;;;3.30;99.90;;;;;;5012556;28;20277;-76
2022/01/08 10:10:15;;;;;;;14.07;7.00;;;3.30;99.90;;;;;;5011804;28;20211;-78
2022/01/08 10:12:54;;;;;;;12.95;7.00;;;3.30;99.90;;;;;;5012271;28;20180;-76
2022/01/08 10:18:30;;;;;;;10.13;5.10;;;3.40;99.90;;;;;;5012776;28;20260;-74
2022/01/08 10:20:56;;;;;;;10.77;5.72;;;3.40;99.90;;;;;;5016396;28;20660;-74
2022/01/08 10:23:31;;;;;;;6.55;4.88;;;3.40;99.90;;;;;;5016619;28;20183;-74
2022/01/08 10:26:00;;;;;;;7.68;5.38;;;3.40;99.90;;;;;;5016596;28;20186;-74
2022/01/08 10:28:42;;;;;;;8.80;4.53;;;3.50;99.90;;;;;;5015969;28;20198;-75
2022/01/08 10:31:31;;;;;;;11.48;4.70;;;3.50;99.90;;;;;;5016398;28;20172;-74
2022/01/08 10:34:00;;;;;;;7.70;4.38;;;3.60;99.90;;;;;;5016475;28;20298;-75
2022/01/08 10:36:35;;;;;;;13.45;4.63;;;3.60;99.90;;;;;;5016036;28;20735;-75
2022/01/08 10:39:06;;;;;;;7.60;4.53;;;3.60;99.90;;;;;;5016060;28;20564;-74
2022/01/08 10:41:32;;;;;;;8.55;5.00;;;3.60;99.90;;;;;;4998315;28;20191;-75
2022/01/08 10:44:16;;;;;;;7.73;3.20;;;3.80;99.90;;;;;;4997029;28;20173;-75
2022/01/08 10:46:46;;;;;;;6.70;3.50;;;3.80;99.90;;;;;;4996725;28;20208;-74
2022/01/08 10:49:16;;;;;;;6.43;4.05;;;3.80;99.90;;;;;;4995822;28;20200;-75
2022/01/08 10:51:41;;;;;;;7.60;3.40;;;3.70;99.90;;;;;;4996338;28;20255;-75
2022/01/08 10:54:08;;;;;;;4.23;2.77;;;3.70;99.90;;;;;;4996576;28;20307;-74
2022/01/08 10:56:40;;;;;;;5.20;3.67;;;3.80;99.90;;;;;;4996223;28;20203;-75
2022/01/08 10:59:14;;;;;;;5.90;3.88;;;4.00;99.90;;;;;;4995961;28;20693;-75
2022/01/08 11:01:56;;;;;;;4.30;3.40;;;4.10;99.90;;;;;;4996465;28;20620;-74
2022/01/08 11:04:48;;;;;;;8.38;3.00;;;4.10;99.90;;;;;;4996515;28;20241;-74
2022/01/08 11:07:17;;;;;;;7.13;3.42;;;4.20;99.90;;;;;;5010391;28;20199;-74
2022/01/08 11:09:45;;;;;;;9.40;3.75;;;4.40;99.90;;;;;;4995026;28;20211;-74
2022/01/08 11:12:16;;;;;;;5.65;3.53;;;4.50;99.90;;;;;;4997654;28;20582;-75
2022/01/08 11:17:21;;;;;;;9.07;4.25;;;4.50;99.90;;;;;;4995717;28;20176;-74
2022/01/08 11:19:50;;;;;;;4.90;3.00;;;4.60;99.90;;;;;;4995566;28;20195;-75
2022/01/08 11:22:21;;;;;;;3.08;2.50;;;4.60;99.90;;;;;;4995653;28;20163;-75
2022/01/08 11:25:04;;;;;;;7.90;2.67;;;4.60;99.90;;;;;;4995914;28;20507;-75
2022/01/08 11:27:38;;;;;;;2.65;1.90;;;4.70;99.90;;;;;;4996021;28;20684;-75
2022/01/08 11:30:11;;;;;;;3.25;2.17;;;4.60;99.90;;;;;;4995432;28;20548;-74
2022/01/08 11:32:38;;;;;;;8.43;2.60;;;4.70;99.90;;;;;;4995702;28;20222;-74
2022/01/08 11:35:06;;;;;;;3.60;3.10;;;4.70;99.90;;;;;;4995441;28;20243;-74
2022/01/08 11:37:32;;;;;;;5.82;2.63;;;4.70;99.90;;;;;;4995463;28;20196;-75
2022/01/08 11:40:03;;;;;;;6.47;2.73;;;4.70;99.90;;;;;;4996585;28;20668;-74
2022/01/08 11:42:31;;;;;;;7.97;3.20;;;4.50;99.90;;;;;;5004287;28;20502;-74
2022/01/08 11:44:59;;;;;;;8.13;2.63;;;4.60;99.90;;;;;;4995254;28;20195;-75
2022/01/08 11:47:27;;;;;;;8.35;3.30;;;4.70;99.90;;;;;;4995275;28;20183;-75
2022/01/08 11:49:53;;;;;;;5.70;3.10;;;4.60;99.90;;;;;;5000924;28;20219;-74
2022/01/08 11:52:21;;;;;;;5.80;2.60;;;4.50;99.90;;;;;;5012819;28;20206;-76
2022/01/08 11:54:49;;;;;;;4.28;2.35;;;4.60;99.90;;;;;;5014753;28;20469;-75
2022/01/08 11:57:33;;;;;;;6.45;2.78;;;4.60;99.90;;;;;;5013975;28;20539;-75
2022/01/08 11:59:58;;;;;;;4.80;3.03;;;4.60;99.90;;;;;;5014934;28;20672;-74
2022/01/08 12:02:39;;;;;;;7.30;3.00;;;4.70;99.90;;;;;;5015077;28;20178;-74
2022/01/08 12:05:07;;;;;;;7.43;2.78;;;4.60;99.90;;;;;;5013862;28;20410;-75
2022/01/08 12:07:36;;;;;;;5.95;3.50;;;4.60;99.90;;;;;;5014302;28;20305;-75
2022/01/08 12:10:26;;;;;;;4.00;2.80;;;4.60;99.90;;;;;;5014696;28;20620;-74
2022/01/08 12:13:00;;;;;;;5.45;2.80;;;4.70;99.90;;;;;;5013746;28;20179;-75
2022/01/08 12:15:41;;;;;;;10.55;3.72;;;4.90;99.90;;;;;;5006243;28;20214;-75
2022/01/08 12:18:15;;;;;;;5.97;4.65;;;5.00;99.90;;;;;;4994621;28;20188;-74
2022/01/08 12:20:46;;;;;;;8.93;5.30;;;5.00;99.90;;;;;;4994310;28;20183;-75
2022/01/08 12:23:26;;;;;;;6.13;4.45;;;4.80;99.90;;;;;;4994460;28;20636;-75
2022/01/08 12:25:53;;;;;;;15.85;4.10;;;4.80;99.90;;;;;;4993872;28;20229;-75
2022/01/08 12:28:42;;;;;;;5.25;3.10;;;4.80;99.90;;;;;;4994432;28;20204;-75
2022/01/08 12:31:29;;;;;;;4.60;3.30;;;4.80;99.90;;;;;;4994393;28;20735;-74
2022/01/08 12:34:28;;;;;;;13.70;6.47;;;4.80;99.90;;;;;;4993885;28;20206;-74
2022/01/08 12:37:04;;;;;;;9.10;4.82;;;4.80;99.90;;;;;;4994564;28;20203;-74
2022/01/08 12:39:43;;;;;;;7.25;4.50;;;4.80;99.90;;;;;;4994122;28;20299;-74
2022/01/08 12:42:24;;;;;;;7.25;3.47;;;4.80;99.90;;;;;;4993900;28;20243;-76
2022/01/08 12:44:59;;;;;;;11.55;6.05;;;4.80;99.90;;;;;;4994301;28;20180;-75
2022/01/08 12:48:00;;;;;;;13.55;4.97;;;4.80;99.90;;;;;;4993897;28;20187;-77
2022/01/08 12:50:39;;;;;;;8.35;4.88;;;4.70;99.90;;;;;;4996890;28;20183;-74
2022/01/08 12:53:11;;;;;;;12.55;5.88;;;4.70;99.90;;;;;;5012509;28;20187;-74
2022/01/08 12:55:53;;;;;;;16.95;7.78;;;4.70;99.90;;;;;;5013194;28;20675;-74
2022/01/08 12:58:46;;;;;;;28.35;11.02;;;4.70;99.90;;;;;;5013312;28;20192;-74
2022/01/08 13:01:20;;;;;;;6.53;4.25;;;4.70;99.90;;;;;;5013854;28;20188;-74
2022/01/08 13:03:57;;;;;;;19.25;7.20;;;4.60;99.90;;;;;;5013043;28;20167;-73
2022/01/08 13:06:29;;;;;;;5.30;3.70;;;4.70;99.90;;;;;;5013638;28;20278;-74
2022/01/08 13:08:55;;;;;;;3.65;2.80;;;4.70;99.90;;;;;;5013355;28;20246;-75
2022/01/08 13:11:28;;;;;;;4.57;3.33;;;4.70;99.90;;;;;;5012740;28;20644;-75
2022/01/08 13:14:05;;;;;;;4.20;2.70;;;4.70;99.90;;;;;;5013764;28;20183;-74
2022/01/08 13:16:51;;;;;;;5.45;2.90;;;4.70;99.90;;;;;;5013664;28;20209;-74
2022/01/08 13:19:21;;;;;;;3.65;2.60;;;4.70;99.90;;;;;;5011205;28;20284;-74